• Join FlightAware (Why Join?)
  • Login
  • US Flag 
08:14AM EDT


 

Airport Tracker/Info


-or-


 

Live Flight TrackerFlight Track Log ✈ N173DS ✈ 03-Jan-2014 ✈ KSRQ - KCAK

Flight Track Log - Related Links

Times and Time Zones

All times are in EST time to prevent confusion due to time zone crossing. See the N173DS flight status page for this flight to view local times or setup timezone preferences in your user account.

Time Position Orientation Groundspeed Altitude Reporting Facility
EST Latitude Longitude Course Direction KTS MPH feet Rate Location/Type
07:50AM 27.4000 -82.5667 299° West 162 186 600  Level Tampa TRACON
07:51AM 27.4167 -82.6000 299° West 210 242 2,100 2,160 Climbing Tampa TRACON
07:52AM 27.4000 -82.6667 254° West 252 290 4,300 2,280 Climbing Tampa TRACON
07:54AM 27.5106 -82.7939 314° West 244 281 10,100 2,280 Climbing Miami Center
07:55AM 27.5961 -82.7889 North 258 297 12,100 2,820 Climbing Miami Center
07:58AM 27.8389 -82.7894 360° North 350 403 19,800 2,340 Climbing Jacksonville Center
07:59AM 27.9581 -82.7869 North 390 449 20,100 1,080 Climbing Jacksonville Center
08:00AM 28.0811 -82.7892 359° North 420 483 22,000 1,920 Climbing Jacksonville Center
08:01AM 28.2042 -82.7867 North 436 502 24,000 1,500 Climbing Jacksonville Center
08:02AM 28.3294 -82.7864 360° North 441 507 25,000 840 Climbing Jacksonville Center
08:03AM 28.4608 -82.7817 North 441 507 25,700 480 Climbing Jacksonville Center
08:04AM 28.5944 -82.7672 North 459 528 26,000 780 Climbing Jacksonville Center
08:05AM 28.7236 -82.7553 North 472 543 27,300 1,200 Climbing Jacksonville Center
08:06AM 28.8572 -82.7456 North 477 549 28,400 960 Climbing Jacksonville Center
08:07AM 28.9950 -82.7311 North 482 555 29,300 960 Climbing Jacksonville Center
08:08AM 29.1350 -82.7192 North 488 562 30,400 1,080 Climbing Jacksonville Center
08:09AM 29.2664 -82.7069 North 506 582 31,500 1,500 Climbing Jacksonville Center
08:10AM 29.4061 -82.6947 North 513 590 33,500 2,280 Climbing Jacksonville Center
08:11AM 29.5525 -82.7158 353° North 483 556 36,100 2,400 Climbing Jacksonville Center
08:12AM 29.6756 -82.7275 355° North 450 518 38,400 1,680 Climbing Jacksonville Center
08:13AM 29.8008 -82.7297 359° North 446 513 39,500 1,020 Climbing Jacksonville Center
08:14AM 29.9303 -82.7128 North 463 533 40,500 720 Climbing Jacksonville Center
08:15AM 30.0472 -82.6933 North 460 529 41,000 240 Climbing Jacksonville Center
08:16AM 30.1808 -82.6764 North 466 536 41,000  Level Jacksonville Center
08:17AM 30.3206 -82.6592 North 487 560 41,000  Level Jacksonville Center
08:18AM 30.4606 -82.6419 North 494 568 41,000  Level Jacksonville Center
08:19AM 30.6108 -82.6269 North 499 574 41,000  Level Jacksonville Center
08:20AM 30.7464 -82.6122 North 499 574 41,000  Level Jacksonville Center
08:21AM 30.8864 -82.5925 North 499 574 41,000  Level Jacksonville Center
08:22AM 31.0261 -82.5775 North 499 574 41,000  Level Jacksonville Center
08:23AM 31.1472 -82.5600 North 499 574 41,000  Level Jacksonville Center
08:24AM 31.2869 -82.5425 North 499 574 41,000  Level Jacksonville Center
08:25AM 31.5139 -82.5139 North 513 590 41,000  Level Atlanta Center
08:26AM 31.6575 -82.4897 North 513 590 41,000  Level Atlanta Center
08:27AM 31.7950 -82.4725 North 507 583 41,000  Level Atlanta Center
08:28AM 31.9306 -82.4506 North 496 571 41,000  Level Atlanta Center
08:29AM 32.0658 -82.4261 North 496 571 41,000  Level Atlanta Center
08:30AM 32.2033 -82.4042 North 496 571 41,000  Level Atlanta Center
08:31AM 32.3386 -82.3819 North 496 571 41,000  Level Atlanta Center
08:32AM 32.4761 -82.3622 North 496 571 41,000  Level Atlanta Center
08:33AM 32.6261 -82.3369 North 496 571 41,000  Level Atlanta Center
08:34AM 32.7614 -82.3147 North 496 571 41,000  Level Atlanta Center
08:35AM 32.8989 -82.2947 North 496 571 41,000  Level Atlanta Center
08:36AM 33.0342 -82.2697 North 491 565 41,000  Level Atlanta Center
08:37AM 33.1717 -82.2494 North 491 565 41,000  Level Atlanta Center
08:38AM 33.3092 -82.2267 North 491 565 41,000  Level Atlanta Center
08:39AM 33.4403 -82.2042 North 491 565 41,000  Level Atlanta Center
08:40AM 33.5756 -82.1839 North 485 558 41,000  Level Atlanta Center
08:41AM 33.7069 -82.1608 North 479 551 41,000  Level Atlanta Center
08:42AM 33.8400 -82.1381 North 479 551 41,000  Level Atlanta Center
08:43AM 33.9608 -82.1178 North 479 551 41,000  Level Atlanta Center
08:44AM 34.0897 -82.0947 North 479 551 41,000  Level Atlanta Center
08:45AM 34.2250 -82.0717 North 479 551 41,000  Level Atlanta Center
08:46AM 34.3542 -82.0461 North 479 551 41,000  Level Atlanta Center
08:47AM 34.4872 -82.0253 North 474 545 41,000  Level Atlanta Center
08:48AM 34.6183 -82.0019 North 479 551 41,000  Level Atlanta Center
08:49AM 34.7494 -81.9808 North 479 551 41,000  Level Atlanta Center
08:50AM 34.8786 -81.9575 North 479 551 41,000  Level Atlanta Center
08:51AM 35.0222 -81.9336 North 474 545 41,000  Level Atlanta Center
08:52AM 35.1242 -81.9286 North 467 537 41,000  Level Atlanta Center
08:53AM 35.2619 -81.9200 North 460 529 41,000  Level Atlanta Center
08:54AM 35.3889 -81.9142 North 455 524 41,000  Level Atlanta Center
08:55AM 35.5142 -81.9083 North 455 524 41,000  Level Atlanta Center
08:56AM 35.6433 -81.9050 North 455 524 41,000  Level Atlanta Center
08:57AM 35.7706 -81.8967 North 460 529 41,000  Level Atlanta Center
08:58AM 35.8933 -81.8881 North 455 524 41,000  Level Atlanta Center
08:59AM 36.0206 -81.8847 North 455 524 41,000  Level Atlanta Center
09:00AM 36.1475 -81.8736 North 455 524 41,000  Level Atlanta Center
09:01AM 36.2686 -81.8731 360° North 449 517 41,000  Level Atlanta Center
09:02AM 36.3936 -81.8669 North 449 517 41,000  Level Atlanta Center
09:04AM 36.6122 -81.8542 North 456 525 41,000  Level Indianapolis Center
09:05AM 36.7439 -81.8472 North 466 536 41,000  Level Indianapolis Center
09:06AM 36.8731 -81.8417 North 465 535 41,000  Level Indianapolis Center
09:07AM 37.0006 -81.8364 North 459 528 41,000  Level Indianapolis Center
09:08AM 37.1278 -81.8303 North 458 527 41,000  Level Indianapolis Center
09:09AM 37.2533 -81.8244 North 453 521 41,000  Level Indianapolis Center
09:10AM 37.3778 -81.8189 North 449 517 41,000  Level Indianapolis Center
09:11AM 37.5028 -81.8125 North 449 517 41,000  Level Indianapolis Center
09:12AM 37.6258 -81.8056 North 443 510 41,000  Level Indianapolis Center
09:13AM 37.7692 -81.7986 North 442 509 41,000  Level Indianapolis Center
09:14AM 37.8919 -81.7922 North 445 512 41,000  Level Indianapolis Center
09:15AM 38.0144 -81.7858 North 440 506 41,000 -120 Level Indianapolis Center
09:16AM 38.1367 -81.7797 North 438 504 40,800 -840 Descending Indianapolis Center
09:17AM 38.2608 -81.7744 North 444 511 39,300 -1,500 Descending Indianapolis Center
09:18AM 38.3872 -81.7681 North 450 518 37,800 -1,560 Descending Indianapolis Center
09:19AM 38.5103 -81.7681 360° North 439 505 36,200 -1,440 Descending Indianapolis Center
09:20AM 38.6297 -81.7661 North 424 488 34,900 -1,440 Descending Indianapolis Center
09:21AM 38.7453 -81.7631 North 409 471 33,300 -1,440 Descending Indianapolis Center
09:22AM 38.8581 -81.7617 North 398 458 32,000 -660 Descending Indianapolis Center
09:23AM 38.9706 -81.7600 North 400 460 32,000  Level Indianapolis Center
09:24AM 39.0839 -81.7583 North 403 464 32,000 -300 Level Indianapolis Center
09:25AM 39.1972 -81.7569 North 407 468 31,400 -840 Descending Indianapolis Center
09:26AM 39.3028 -81.7553 North 381 438 30,300 -1,140 Descending Indianapolis Center
09:27AM 39.4092 -81.7542 360° North 380 437 29,200 -1,260 Descending Indianapolis Center
09:28AM 39.5183 -81.7508 North 390 449 27,800 -1,680 Descending Indianapolis Center
09:29AM 39.6294 -81.7511 360° North 397 457 25,800 -1,980 Descending Indianapolis Center
09:30AM 39.7422 -81.7492 North 399 459 23,800 -1,980 Descending Indianapolis Center
09:31AM 39.8506 -81.7478 North 392 451 21,800 -1,920 Descending Indianapolis Center
09:32AM 39.9550 -81.7458 North 382 440 19,900 -2,040 Descending Indianapolis Center
09:34AM 40.0631 -81.7422 North 362 417 17,700 -1,920 Descending Indianapolis Center
09:35AM 40.1586 -81.7411 North 344 396 16,100 -1,860 Descending Indianapolis Center
09:36AM 40.2522 -81.7400 North 334 384 14,000 -1,740 Descending Indianapolis Center
09:37AM 40.3453 -81.7378 North 330 380 12,600 -1,020 Descending Indianapolis Center
09:38AM 40.4361 -81.7364 North 324 373 12,000 -1,260 Descending Indianapolis Center
09:39AM 40.5347 -81.7361 360° North 300 345 10,100 -1,440 Descending Indianapolis Center
09:40AM 40.6133 -81.7342 North 283 326 9,100 -1,260 Descending Indianapolis Center
09:41AM 40.6669 -81.6836 36° Northeast 272 313 7,600 -2,220 Descending Indianapolis Center
09:42AM 40.6953 -81.5969 67° East 263 303 4,600 -2,280 Descending Indianapolis Center
09:43AM 40.7256 -81.5156 64° Northeast 254 292 3,000 -840 Descending Indianapolis Center
09:44AM 40.7650 -81.4544 50° Northeast 234 269 3,000  Level Indianapolis Center
09:45AM 40.8153 -81.4442 North 198 228 3,000 -300 Level Indianapolis Center
09:46AM 40.8550 -81.4414 North 156 180 2,400 -660 Descending Indianapolis Center
09:47AM 40.8908 -81.4403 North 133 153 1,700 -480 Descending Indianapolis Center
09:48AM 40.9256 -81.4406 360° North 132 152 1,500 -240 Descending Indianapolis Center
09:50AM 40.9151 -81.4436 180° South  Level Estimated